Sam Hawk — D5IJ9 — position and weather

sailwx.info

Track history (hours):
 
Tides and Currents Weather Stations Pressure Air Temp Water Temp Dewpoint Dewpoint Depression Visibility Wind Speed Wind Dir Waves Ship Positions

Sam Hawk

Last reported at 2018-Jun-22 16:30 UTC. Time now 2018-Jun-22 16:37 UTC.
Position N 36°35' E 013°45'.

Length 190 m; draft 11 m.

Type: Cargo ship. MMSI: 636016919.

Date/timePositionNaut miles runAvg speedWind from/ knotsBaromVisibWave heightAir tempDewpointWater temp
2018-Jun-22 16:30N 36°35' E 013°45'713.6
2018-Jun-22 16:00N 36°37' E 013°37'713.6
2018-Jun-22 15:30N 36°39' E 013°29'713.3
2018-Jun-22 14:58N 36°41' E 013°21'613.3
2018-Jun-22 14:30N 36°43' E 013°13'713.3
2018-Jun-22 14:00N 36°45' E 013°05'713.4
2018-Jun-22 13:30N 36°47' E 012°57'713.5
2018-Jun-22 13:00N 36°49' E 012°49'713.2
2018-Jun-22 12:30N 36°50' E 012°41'713.2
2018-Jun-22 12:00N 36°52' E 012°33'43813.6
2018-Jun-21 03:48N 37°06' E 003°26'412.7
2018-Jun-21 03:30N 37°06' E 003°21'612.8
2018-Jun-21 03:00N 37°05' E 003°13'612.9
2018-Jun-21 02:30N 37°03' E 003°05'612.8
2018-Jun-21 02:00N 37°02' E 002°57'713.1
2018-Jun-21 01:30N 37°01' E 002°49'713.3
2018-Jun-21 01:00N 36°59' E 002°41'713.1
2018-Jun-21 00:30N 36°58' E 002°33'713.2
2018-Jun-21 00:00N 36°57' E 002°25'913.3
2018-Jun-20 23:19N 36°55' E 002°14'513.2
2018-Jun-20 22:57N 36°54' E 002°08'813.3
2018-Jun-20 22:22N 36°53' E 001°58'513.6
2018-Jun-20 22:00N 36°52' E 001°52'713.6
2018-Jun-20 21:30N 36°51' E 001°44'1014.0
2018-Jun-20 20:49N 36°50' E 001°32'413.9
2018-Jun-20 20:30N 36°49' E 001°27'813.8
2018-Jun-20 19:56N 36°47' E 001°17'613.8
2018-Jun-20 19:29N 36°46' E 001°09'713.9
2018-Jun-20 19:00N 36°45' E 001°01'813.8
2018-Jun-20 18:27N 36°44' E 000°52'613.7
2018-Jun-20 18:00N 36°43' E 000°44'713.7
2018-Jun-20 17:29N 36°42' E 000°36'713.6
2018-Jun-20 16:59N 36°41' E 000°27'713.6
2018-Jun-20 16:30N 36°40' E 000°19'612.9
2018-Jun-20 16:00N 36°38' E 000°11'612.6
2018-Jun-20 15:29N 36°36' E 000°03'612.6
2018-Jun-20 15:00N 36°35' W 000°04'1313.1
2018-Jun-20 14:00N 36°33' W 000°20'713.2
2018-Jun-20 13:30N 36°32' W 000°28'713.3
2018-Jun-20 12:57N 36°30' W 000°37'613.6
2018-Jun-20 12:30N 36°30' W 000°45'40513.3
2018-Jun-19 06:08N 36°32' W 009°09'213.6
2018-Jun-19 06:00N 36°33' W 009°11'1312.7
2018-Jun-19 05:01N 36°40' W 009°24'213.1
2018-Jun-19 04:50N 36°42' W 009°26'3213.4
2018-Jun-19 02:26N 37°11' W 009°41'614.1
2018-Jun-19 02:00N 37°17' W 009°43'714.0
2018-Jun-19 01:30N 37°24' W 009°45'714.0
2018-Jun-19 01:00N 37°31' W 009°47'713.9
2018-Jun-19 00:30N 37°37' W 009°49'714.0
2018-Jun-19 00:00N 37°44' W 009°52'713.5
2018-Jun-18 23:30N 37°51' W 009°53'713.3
2018-Jun-18 23:00N 37°57' W 009°55'714.1
2018-Jun-18 22:30N 38°04' W 009°57'713.9
2018-Jun-18 22:00N 38°11' W 009°59'713.7
2018-Jun-18 21:30N 38°18' W 010°00'713.9
2018-Jun-18 21:00N 38°25' W 010°02'713.7
2018-Jun-18 20:30N 38°31' W 010°04'713.7
2018-Jun-18 20:00N 38°38' W 010°06'713.4
2018-Jun-18 19:30N 38°45' W 010°07'713.5
2018-Jun-18 19:00N 38°51' W 010°07'713.6
2018-Jun-18 18:30N 38°58' W 010°07'713.3
2018-Jun-18 18:00N 39°05' W 010°06'713.3
2018-Jun-18 17:30N 39°11' W 010°06'713.9
2018-Jun-18 17:00N 39°18' W 010°07'714.0
2018-Jun-18 16:31N 39°25' W 010°07'713.7
2018-Jun-18 16:00N 39°32' W 010°07'714.0
2018-Jun-18 15:30N 39°39' W 010°07'713.7
2018-Jun-18 15:00N 39°46' W 010°07'713.7
2018-Jun-18 14:30N 39°53' W 010°07'713.8
2018-Jun-18 14:00N 39°60' W 010°06'714.1
2018-Jun-18 13:30N 40°07' W 010°07'713.7
2018-Jun-18 13:00N 40°14' W 010°07'713.7
2018-Jun-18 12:28N 40°21' W 010°07'813.9
2018-Jun-18 11:55N 40°29' W 010°07'1013.7
2018-Jun-18 11:09N 40°39' W 010°06'213.7
2018-Jun-18 11:00N 40°41' W 010°06'54113.0
2018-Jun-16 17:28N 49°04' W 005°23'611.0
2018-Jun-16 16:53N 49°07' W 005°15'1411.6
2018-Jun-16 15:42N 49°14' W 004°57'512.3
2018-Jun-16 15:15N 49°17' W 004°50'5513.8
2018-Jun-16 11:14N 49°45' W 003°36'612.0
2018-Jun-16 10:45N 49°48' W 003°28'311.4
2018-Jun-16 10:30N 49°49' W 003°24'511.0
2018-Jun-16 10:00N 49°52' W 003°17'510.8
2018-Jun-16 09:30N 49°55' W 003°10'510.8
2018-Jun-16 09:00N 49°57' W 003°02'510.4
2018-Jun-16 08:30N 49°60' W 002°55'610.8
2018-Jun-16 08:00N 50°01' W 002°47'611.3
2018-Jun-16 07:30N 50°03' W 002°39'611.9
2018-Jun-16 07:00N 50°04' W 002°30'912.7
2018-Jun-16 06:17N 50°06' W 002°16'6715.9
2018-Jun-16 02:05N 50°24' W 000°35'415.1
2018-Jun-16 01:48N 50°25' W 000°28'614.7
2018-Jun-16 01:23N 50°26' W 000°19'514.1
2018-Jun-16 01:00N 50°27' W 000°11'813.3
2018-Jun-16 00:22N 50°30' E 000°02'512.6
2018-Jun-15 23:59N 50°31' E 000°09'612.0
2018-Jun-15 23:30N 50°32' E 000°18'611.5
2018-Jun-15 23:00N 50°34' E 000°27'611.2
2018-Jun-15 22:29N 50°35' E 000°36'511.3
2018-Jun-15 22:01N 50°38' E 000°43'612.0
2018-Jun-15 21:30N 50°42' E 000°50'612.9
2018-Jun-15 21:00N 50°46' E 000°59'714.1
2018-Jun-15 20:30N 50°50' E 001°08'714.9
2018-Jun-15 20:00N 50°54' E 001°17'815.8
2018-Jun-15 19:30N 51°00' E 001°25'815.5
2018-Jun-15 19:00N 51°06' E 001°34'714.7
2018-Jun-15 18:30N 51°11' E 001°42'713.8
2018-Jun-15 18:00N 51°17' E 001°48'713.1
2018-Jun-15 17:30N 51°23' E 001°53'612.3
2018-Jun-15 17:00N 51°28' E 001°59'612.2
2018-Jun-15 16:30N 51°32' E 002°05'612.0
2018-Jun-15 16:00N 51°37' E 002°12'611.7
2018-Jun-15 15:30N 51°41' E 002°18'611.5
2018-Jun-15 15:00N 51°45' E 002°24'611.5
2018-Jun-15 14:30N 51°49' E 002°30'611.8
2018-Jun-15 14:00N 51°54' E 002°37'612.2
2018-Jun-15 13:30N 51°58' E 002°43'712.8
2018-Jun-15 12:58N 52°04' E 002°49'613.5
2018-Jun-15 12:30N 52°09' E 002°56'714.2
2018-Jun-15 12:00N 52°14' E 003°04'714.6
2018-Jun-15 11:31N 52°19' E 003°12'714.3
2018-Jun-15 11:00N 52°24' E 003°21'714.7
2018-Jun-15 10:30N 52°27' E 003°32'714.6
2018-Jun-15 10:01N 52°30' E 003°43'714.3
2018-Jun-15 09:30N 52°31' E 003°55'714.1
2018-Jun-15 09:00N 52°31' E 004°06'713.7
2018-Jun-15 08:30N 52°30' E 004°17'612.3
2018-Jun-15 08:00N 52°29' E 004°27'510.0
2018-Jun-15 07:30N 52°28' E 004°35'1 1.6
2018-Jun-15 07:01N 52°28' E 004°37'1 1.5
2018-Jun-15 06:30N 52°28' E 004°38'1 1.3
2018-Jun-15 06:00N 52°28' E 004°39'0 0.8
2018-Jun-15 05:30N 52°28' E 004°39'3 6.2
2018-Jun-15 05:00N 52°26' E 004°44'3 6.7
2018-Jun-15 04:31N 52°25' E 004°49'2 4.7
2018-Jun-15 04:01N 52°24' E 004°52'0 1.0
2018-Jun-15 03:30N 52°24' E 004°52'0 0.0
2018-Jun-15 02:59N 52°24' E 004°52'0 0.0
2018-Jun-15 02:29N 52°24' E 004°52'0 0.0
2018-Jun-15 01:59N 52°24' E 004°52'0 0.0
2018-Jun-15 01:29N 52°24' E 004°52'0 0.0
2018-Jun-15 00:59N 52°24' E 004°52'0 0.0
2018-Jun-15 00:29N 52°24' E 004°52'0 0.0
2018-Jun-14 23:59N 52°24' E 004°52'0 0.0
2018-Jun-14 23:29N 52°24' E 004°52'0 0.0
2018-Jun-14 22:59N 52°24' E 004°52'0 0.0
2018-Jun-14 22:29N 52°24' E 004°52'0 0.0
2018-Jun-14 21:59N 52°24' E 004°52'0 0.0
2018-Jun-14 21:29N 52°24' E 004°52'0 0.0
2018-Jun-14 20:59N 52°24' E 004°52'0 0.0
2018-Jun-14 20:29N 52°24' E 004°52'0 0.0
2018-Jun-14 19:59N 52°24' E 004°52'0 0.0
2018-Jun-14 19:29N 52°24' E 004°52'0 0.0
2018-Jun-14 18:59N 52°24' E 004°52'0 0.0
2018-Jun-14 18:29N 52°24' E 004°52'0 0.0
2018-Jun-14 17:59N 52°24' E 004°52'0 0.0
2018-Jun-14 17:29N 52°24' E 004°52'0 0.0
2018-Jun-14 16:59N 52°24' E 004°52'0 0.0
2018-Jun-14 16:29N 52°24' E 004°52'0 0.0
2018-Jun-14 15:59N 52°24' E 004°52'0 0.0
2018-Jun-14 15:29N 52°24' E 004°52'0 0.0
2018-Jun-14 14:59N 52°24' E 004°52'0 0.0
2018-Jun-14 14:29N 52°24' E 004°52'0 0.0
2018-Jun-14 13:59N 52°24' E 004°52'0 0.0
2018-Jun-14 13:29N 52°24' E 004°52'0 0.0
2018-Jun-14 12:59N 52°24' E 004°52'0 0.0
2018-Jun-14 12:29N 52°24' E 004°52'0 0.0
2018-Jun-14 11:59N 52°24' E 004°52'0 0.0
2018-Jun-14 11:29N 52°24' E 004°52'0 0.0
2018-Jun-14 10:59N 52°24' E 004°52'0 0.0
2018-Jun-14 10:29N 52°24' E 004°52'0 0.0
2018-Jun-14 09:59N 52°24' E 004°52'0 0.0
2018-Jun-14 09:29N 52°24' E 004°52'0 0.0
2018-Jun-14 08:59N 52°24' E 004°52'0 0.0
2018-Jun-14 08:29N 52°24' E 004°52'0 0.0
2018-Jun-14 07:59N 52°24' E 004°52'0 0.0
2018-Jun-14 07:26N 52°24' E 004°52'0 0.0
2018-Jun-14 06:59N 52°24' E 004°52'0 0.0
2018-Jun-14 06:29N 52°24' E 004°52'0 0.0
2018-Jun-14 05:59N 52°24' E 004°52'0 0.0
2018-Jun-14 05:29N 52°24' E 004°52'0 0.0
2018-Jun-14 04:59N 52°24' E 004°52'0 0.0
2018-Jun-14 04:29N 52°24' E 004°52'0 0.0
2018-Jun-14 03:59N 52°24' E 004°52'0 0.0
2018-Jun-14 03:29N 52°24' E 004°52'0 0.0
2018-Jun-14 02:59N 52°24' E 004°52'0 0.0
2018-Jun-14 02:29N 52°24' E 004°52'0 0.0
2018-Jun-14 01:59N 52°24' E 004°52'0 0.0
2018-Jun-14 01:29N 52°24' E 004°52'0 0.0
2018-Jun-14 00:59N 52°24' E 004°52'0 0.0
2018-Jun-14 00:29N 52°24' E 004°52'0 0.0
2018-Jun-13 23:59N 52°24' E 004°52'0 0.0
2018-Jun-13 23:29N 52°24' E 004°52'0 0.0
2018-Jun-13 22:59N 52°24' E 004°52'0 0.0
2018-Jun-13 22:26N 52°24' E 004°52'0 0.0
2018-Jun-13 21:59N 52°24' E 004°52'0 0.0
2018-Jun-13 21:29N 52°24' E 004°52'0 0.0
2018-Jun-13 20:59N 52°24' E 004°52'0 0.0
2018-Jun-13 20:29N 52°24' E 004°52'0 0.0
2018-Jun-13 19:59N 52°24' E 004°52'0 0.0
2018-Jun-13 19:29N 52°24' E 004°52'0 0.0
2018-Jun-13 18:59N 52°24' E 004°52'0 0.0
2018-Jun-13 18:26N 52°24' E 004°52'0 0.0
2018-Jun-13 17:59N 52°24' E 004°52'0 0.0
2018-Jun-13 17:29N 52°24' E 004°52'0 0.0
2018-Jun-13 16:59N 52°24' E 004°52'0 0.0
2018-Jun-13 16:29N 52°24' E 004°52'0 0.0
2018-Jun-13 15:59N 52°24' E 004°52'0 0.0
2018-Jun-13 15:26N 52°24' E 004°52'0 0.0
2018-Jun-13 14:59N 52°24' E 004°52'0 0.0
2018-Jun-13 14:26N 52°24' E 004°52'0 0.0
2018-Jun-13 13:59N 52°24' E 004°52'0 0.0
2018-Jun-13 13:29N 52°24' E 004°52'0 0.0
2018-Jun-13 12:59N 52°24' E 004°52'0 0.0
2018-Jun-13 12:29N 52°24' E 004°52'0 0.0
2018-Jun-13 11:59N 52°24' E 004°52'0 0.0
2018-Jun-13 11:29N 52°24' E 004°52'0 0.0
2018-Jun-13 10:59N 52°24' E 004°52'0 0.0
2018-Jun-13 10:29N 52°24' E 004°52'0 0.0
2018-Jun-13 09:59N 52°24' E 004°52'0 0.0
2018-Jun-13 09:29N 52°24' E 004°52'0 0.0
2018-Jun-13 08:59N 52°24' E 004°52'0 0.0
2018-Jun-13 08:29N 52°24' E 004°52'0 0.0
2018-Jun-13 07:59N 52°24' E 004°52'0 0.0
2018-Jun-13 07:29N 52°24' E 004°52'0 0.0
2018-Jun-13 06:59N 52°24' E 004°52'0 0.0
2018-Jun-13 06:29N 52°24' E 004°52'0 0.0
2018-Jun-13 05:59N 52°24' E 004°52'0 0.0
2018-Jun-13 05:29N 52°24' E 004°52'0 0.0
2018-Jun-13 04:59N 52°24' E 004°52'0 0.0
2018-Jun-13 04:29N 52°24' E 004°52'0 0.0
2018-Jun-13 03:59N 52°24' E 004°52'0 0.0
2018-Jun-13 03:29N 52°24' E 004°52'0 0.0
2018-Jun-13 02:59N 52°24' E 004°52'0 0.0
2018-Jun-13 02:29N 52°24' E 004°52'0 0.0
2018-Jun-13 01:59N 52°24' E 004°52'0 0.0
2018-Jun-13 01:29N 52°24' E 004°52'0 0.0
2018-Jun-13 00:59N 52°24' E 004°52'0 0.0
2018-Jun-13 00:29N 52°24' E 004°52'0 0.0
2018-Jun-12 23:59N 52°24' E 004°52'0 0.0
2018-Jun-12 23:29N 52°24' E 004°52'0 0.0
2018-Jun-12 22:59N 52°24' E 004°52'0 0.0
2018-Jun-12 22:29N 52°24' E 004°52'0 0.0
2018-Jun-12 21:59N 52°24' E 004°52'0 0.0
2018-Jun-12 21:29N 52°24' E 004°52'0 0.0
2018-Jun-12 20:59N 52°24' E 004°52'0 0.0
2018-Jun-12 20:29N 52°24' E 004°52'0 0.0
2018-Jun-12 19:59N 52°24' E 004°52'0 0.0
2018-Jun-12 19:29N 52°24' E 004°52'0 0.0
2018-Jun-12 18:59N 52°24' E 004°52'0 0.0
2018-Jun-12 18:29N 52°24' E 004°52'0 0.0
2018-Jun-12 17:59N 52°24' E 004°52'0 0.0
2018-Jun-12 17:29N 52°24' E 004°52'0 0.0
2018-Jun-12 16:59N 52°24' E 004°52'  
Track history (hours):
 
Tides and Currents Weather Stations Pressure Air Temp Water Temp Dewpoint Dewpoint Depression Visibility Wind Speed Wind Dir Waves Ship Positions

Sam Hawk

Last reported at 2018-Jun-22 16:30 UTC. Time now 2018-Jun-22 16:37 UTC.
Position N 36°35' E 013°45'.

Length 190 m; draft 11 m.

Type: Cargo ship. MMSI: 636016919.

Date/timePositionNaut miles runAvg speedWind from/ knotsBaromVisibWave heightAir tempDewpointWater temp
2018-Jun-22 16:30N 36°35' E 013°45'713.6
2018-Jun-22 16:00N 36°37' E 013°37'713.6
2018-Jun-22 15:30N 36°39' E 013°29'713.3
2018-Jun-22 14:58N 36°41' E 013°21'613.3
2018-Jun-22 14:30N 36°43' E 013°13'713.3
2018-Jun-22 14:00N 36°45' E 013°05'713.4
2018-Jun-22 13:30N 36°47' E 012°57'713.5
2018-Jun-22 13:00N 36°49' E 012°49'713.2
2018-Jun-22 12:30N 36°50' E 012°41'713.2
2018-Jun-22 12:00N 36°52' E 012°33'43813.6
2018-Jun-21 03:48N 37°06' E 003°26'412.7
2018-Jun-21 03:30N 37°06' E 003°21'612.8
2018-Jun-21 03:00N 37°05' E 003°13'612.9
2018-Jun-21 02:30N 37°03' E 003°05'612.8
2018-Jun-21 02:00N 37°02' E 002°57'713.1
2018-Jun-21 01:30N 37°01' E 002°49'713.3
2018-Jun-21 01:00N 36°59' E 002°41'713.1
2018-Jun-21 00:30N 36°58' E 002°33'713.2
2018-Jun-21 00:00N 36°57' E 002°25'913.3
2018-Jun-20 23:19N 36°55' E 002°14'513.2
2018-Jun-20 22:57N 36°54' E 002°08'813.3
2018-Jun-20 22:22N 36°53' E 001°58'513.6
2018-Jun-20 22:00N 36°52' E 001°52'713.6
2018-Jun-20 21:30N 36°51' E 001°44'1014.0
2018-Jun-20 20:49N 36°50' E 001°32'413.9
2018-Jun-20 20:30N 36°49' E 001°27'813.8
2018-Jun-20 19:56N 36°47' E 001°17'613.8
2018-Jun-20 19:29N 36°46' E 001°09'713.9
2018-Jun-20 19:00N 36°45' E 001°01'813.8
2018-Jun-20 18:27N 36°44' E 000°52'613.7
2018-Jun-20 18:00N 36°43' E 000°44'713.7
2018-Jun-20 17:29N 36°42' E 000°36'713.6
2018-Jun-20 16:59N 36°41' E 000°27'713.6
2018-Jun-20 16:30N 36°40' E 000°19'612.9
2018-Jun-20 16:00N 36°38' E 000°11'612.6
2018-Jun-20 15:29N 36°36' E 000°03'612.6
2018-Jun-20 15:00N 36°35' W 000°04'1313.1
2018-Jun-20 14:00N 36°33' W 000°20'713.2
2018-Jun-20 13:30N 36°32' W 000°28'713.3
2018-Jun-20 12:57N 36°30' W 000°37'613.6
2018-Jun-20 12:30N 36°30' W 000°45'40513.3
2018-Jun-19 06:08N 36°32' W 009°09'213.6
2018-Jun-19 06:00N 36°33' W 009°11'1312.7
2018-Jun-19 05:01N 36°40' W 009°24'213.1
2018-Jun-19 04:50N 36°42' W 009°26'3213.4
2018-Jun-19 02:26N 37°11' W 009°41'614.1
2018-Jun-19 02:00N 37°17' W 009°43'714.0
2018-Jun-19 01:30N 37°24' W 009°45'714.0
2018-Jun-19 01:00N 37°31' W 009°47'713.9
2018-Jun-19 00:30N 37°37' W 009°49'714.0
2018-Jun-19 00:00N 37°44' W 009°52'713.5
2018-Jun-18 23:30N 37°51' W 009°53'713.3
2018-Jun-18 23:00N 37°57' W 009°55'714.1
2018-Jun-18 22:30N 38°04' W 009°57'713.9
2018-Jun-18 22:00N 38°11' W 009°59'713.7
2018-Jun-18 21:30N 38°18' W 010°00'713.9
2018-Jun-18 21:00N 38°25' W 010°02'713.7
2018-Jun-18 20:30N 38°31' W 010°04'713.7
2018-Jun-18 20:00N 38°38' W 010°06'713.4
2018-Jun-18 19:30N 38°45' W 010°07'713.5
2018-Jun-18 19:00N 38°51' W 010°07'713.6
2018-Jun-18 18:30N 38°58' W 010°07'713.3
2018-Jun-18 18:00N 39°05' W 010°06'713.3
2018-Jun-18 17:30N 39°11' W 010°06'713.9
2018-Jun-18 17:00N 39°18' W 010°07'714.0
2018-Jun-18 16:31N 39°25' W 010°07'713.7
2018-Jun-18 16:00N 39°32' W 010°07'714.0
2018-Jun-18 15:30N 39°39' W 010°07'713.7
2018-Jun-18 15:00N 39°46' W 010°07'713.7
2018-Jun-18 14:30N 39°53' W 010°07'713.8
2018-Jun-18 14:00N 39°60' W 010°06'714.1
2018-Jun-18 13:30N 40°07' W 010°07'713.7
2018-Jun-18 13:00N 40°14' W 010°07'713.7
2018-Jun-18 12:28N 40°21' W 010°07'813.9
2018-Jun-18 11:55N 40°29' W 010°07'1013.7
2018-Jun-18 11:09N 40°39' W 010°06'213.7
2018-Jun-18 11:00N 40°41' W 010°06'54113.0
2018-Jun-16 17:28N 49°04' W 005°23'611.0
2018-Jun-16 16:53N 49°07' W 005°15'1411.6
2018-Jun-16 15:42N 49°14' W 004°57'512.3
2018-Jun-16 15:15N 49°17' W 004°50'5513.8
2018-Jun-16 11:14N 49°45' W 003°36'612.0
2018-Jun-16 10:45N 49°48' W 003°28'311.4
2018-Jun-16 10:30N 49°49' W 003°24'511.0
2018-Jun-16 10:00N 49°52' W 003°17'510.8
2018-Jun-16 09:30N 49°55' W 003°10'510.8
2018-Jun-16 09:00N 49°57' W 003°02'510.4
2018-Jun-16 08:30N 49°60' W 002°55'610.8
2018-Jun-16 08:00N 50°01' W 002°47'611.3
2018-Jun-16 07:30N 50°03' W 002°39'611.9
2018-Jun-16 07:00N 50°04' W 002°30'912.7
2018-Jun-16 06:17N 50°06' W 002°16'6715.9
2018-Jun-16 02:05N 50°24' W 000°35'415.1
2018-Jun-16 01:48N 50°25' W 000°28'614.7
2018-Jun-16 01:23N 50°26' W 000°19'514.1
2018-Jun-16 01:00N 50°27' W 000°11'813.3
2018-Jun-16 00:22N 50°30' E 000°02'512.6
2018-Jun-15 23:59N 50°31' E 000°09'612.0
2018-Jun-15 23:30N 50°32' E 000°18'611.5
2018-Jun-15 23:00N 50°34' E 000°27'611.2
2018-Jun-15 22:29N 50°35' E 000°36'511.3
2018-Jun-15 22:01N 50°38' E 000°43'612.0
2018-Jun-15 21:30N 50°42' E 000°50'612.9
2018-Jun-15 21:00N 50°46' E 000°59'714.1
2018-Jun-15 20:30N 50°50' E 001°08'714.9
2018-Jun-15 20:00N 50°54' E 001°17'815.8
2018-Jun-15 19:30N 51°00' E 001°25'815.5
2018-Jun-15 19:00N 51°06' E 001°34'714.7
2018-Jun-15 18:30N 51°11' E 001°42'713.8
2018-Jun-15 18:00N 51°17' E 001°48'713.1
2018-Jun-15 17:30N 51°23' E 001°53'612.3
2018-Jun-15 17:00N 51°28' E 001°59'612.2
2018-Jun-15 16:30N 51°32' E 002°05'612.0
2018-Jun-15 16:00N 51°37' E 002°12'611.7
2018-Jun-15 15:30N 51°41' E 002°18'611.5
2018-Jun-15 15:00N 51°45' E 002°24'611.5
2018-Jun-15 14:30N 51°49' E 002°30'611.8
2018-Jun-15 14:00N 51°54' E 002°37'612.2
2018-Jun-15 13:30N 51°58' E 002°43'712.8
2018-Jun-15 12:58N 52°04' E 002°49'613.5
2018-Jun-15 12:30N 52°09' E 002°56'714.2
2018-Jun-15 12:00N 52°14' E 003°04'714.6
2018-Jun-15 11:31N 52°19' E 003°12'714.3
2018-Jun-15 11:00N 52°24' E 003°21'714.7
2018-Jun-15 10:30N 52°27' E 003°32'714.6
2018-Jun-15 10:01N 52°30' E 003°43'714.3
2018-Jun-15 09:30N 52°31' E 003°55'714.1
2018-Jun-15 09:00N 52°31' E 004°06'713.7
2018-Jun-15 08:30N 52°30' E 004°17'612.3
2018-Jun-15 08:00N 52°29' E 004°27'510.0
2018-Jun-15 07:30N 52°28' E 004°35'1 1.6
2018-Jun-15 07:01N 52°28' E 004°37'1 1.5
2018-Jun-15 06:30N 52°28' E 004°38'1 1.3
2018-Jun-15 06:00N 52°28' E 004°39'0 0.8
2018-Jun-15 05:30N 52°28' E 004°39'3 6.2
2018-Jun-15 05:00N 52°26' E 004°44'3 6.7
2018-Jun-15 04:31N 52°25' E 004°49'2 4.7
2018-Jun-15 04:01N 52°24' E 004°52'0 1.0
2018-Jun-15 03:30N 52°24' E 004°52'0 0.0
2018-Jun-15 02:59N 52°24' E 004°52'0 0.0
2018-Jun-15 02:29N 52°24' E 004°52'0 0.0
2018-Jun-15 01:59N 52°24' E 004°52'0 0.0
2018-Jun-15 01:29N 52°24' E 004°52'0 0.0
2018-Jun-15 00:59N 52°24' E 004°52'0 0.0
2018-Jun-15 00:29N 52°24' E 004°52'0 0.0
2018-Jun-14 23:59N 52°24' E 004°52'0 0.0
2018-Jun-14 23:29N 52°24' E 004°52'0 0.0
2018-Jun-14 22:59N 52°24' E 004°52'0 0.0
2018-Jun-14 22:29N 52°24' E 004°52'0 0.0
2018-Jun-14 21:59N 52°24' E 004°52'0 0.0
2018-Jun-14 21:29N 52°24' E 004°52'0 0.0
2018-Jun-14 20:59N 52°24' E 004°52'0 0.0
2018-Jun-14 20:29N 52°24' E 004°52'0 0.0
2018-Jun-14 19:59N 52°24' E 004°52'0 0.0
2018-Jun-14 19:29N 52°24' E 004°52'0 0.0
2018-Jun-14 18:59N 52°24' E 004°52'0 0.0
2018-Jun-14 18:29N 52°24' E 004°52'0 0.0
2018-Jun-14 17:59N 52°24' E 004°52'0 0.0
2018-Jun-14 17:29N 52°24' E 004°52'0 0.0
2018-Jun-14 16:59N 52°24' E 004°52'0 0.0
2018-Jun-14 16:29N 52°24' E 004°52'0 0.0
2018-Jun-14 15:59N 52°24' E 004°52'0 0.0
2018-Jun-14 15:29N 52°24' E 004°52'0 0.0
2018-Jun-14 14:59N 52°24' E 004°52'0 0.0
2018-Jun-14 14:29N 52°24' E 004°52'0 0.0
2018-Jun-14 13:59N 52°24' E 004°52'0 0.0
2018-Jun-14 13:29N 52°24' E 004°52'0 0.0
2018-Jun-14 12:59N 52°24' E 004°52'0 0.0
2018-Jun-14 12:29N 52°24' E 004°52'0 0.0
2018-Jun-14 11:59N 52°24' E 004°52'0 0.0
2018-Jun-14 11:29N 52°24' E 004°52'0 0.0
2018-Jun-14 10:59N 52°24' E 004°52'0 0.0
2018-Jun-14 10:29N 52°24' E 004°52'0 0.0
2018-Jun-14 09:59N 52°24' E 004°52'0 0.0
2018-Jun-14 09:29N 52°24' E 004°52'0 0.0
2018-Jun-14 08:59N 52°24' E 004°52'0 0.0
2018-Jun-14 08:29N 52°24' E 004°52'0 0.0
2018-Jun-14 07:59N 52°24' E 004°52'0 0.0
2018-Jun-14 07:26N 52°24' E 004°52'0 0.0
2018-Jun-14 06:59N 52°24' E 004°52'0 0.0
2018-Jun-14 06:29N 52°24' E 004°52'0 0.0
2018-Jun-14 05:59N 52°24' E 004°52'0 0.0
2018-Jun-14 05:29N 52°24' E 004°52'0 0.0
2018-Jun-14 04:59N 52°24' E 004°52'0 0.0
2018-Jun-14 04:29N 52°24' E 004°52'0 0.0
2018-Jun-14 03:59N 52°24' E 004°52'0 0.0
2018-Jun-14 03:29N 52°24' E 004°52'0 0.0
2018-Jun-14 02:59N 52°24' E 004°52'0 0.0
2018-Jun-14 02:29N 52°24' E 004°52'0 0.0
2018-Jun-14 01:59N 52°24' E 004°52'0 0.0
2018-Jun-14 01:29N 52°24' E 004°52'0 0.0
2018-Jun-14 00:59N 52°24' E 004°52'0 0.0
2018-Jun-14 00:29N 52°24' E 004°52'0 0.0
2018-Jun-13 23:59N 52°24' E 004°52'0 0.0
2018-Jun-13 23:29N 52°24' E 004°52'0 0.0
2018-Jun-13 22:59N 52°24' E 004°52'0 0.0
2018-Jun-13 22:26N 52°24' E 004°52'0 0.0
2018-Jun-13 21:59N 52°24' E 004°52'0 0.0
2018-Jun-13 21:29N 52°24' E 004°52'0 0.0
2018-Jun-13 20:59N 52°24' E 004°52'0 0.0
2018-Jun-13 20:29N 52°24' E 004°52'0 0.0
2018-Jun-13 19:59N 52°24' E 004°52'0 0.0
2018-Jun-13 19:29N 52°24' E 004°52'0 0.0
2018-Jun-13 18:59N 52°24' E 004°52'0 0.0
2018-Jun-13 18:26N 52°24' E 004°52'0 0.0
2018-Jun-13 17:59N 52°24' E 004°52'0 0.0
2018-Jun-13 17:29N 52°24' E 004°52'0 0.0
2018-Jun-13 16:59N 52°24' E 004°52'0 0.0
2018-Jun-13 16:29N 52°24' E 004°52'0 0.0
2018-Jun-13 15:59N 52°24' E 004°52'0 0.0
2018-Jun-13 15:26N 52°24' E 004°52'0 0.0
2018-Jun-13 14:59N 52°24' E 004°52'0 0.0
2018-Jun-13 14:26N 52°24' E 004°52'0 0.0
2018-Jun-13 13:59N 52°24' E 004°52'0 0.0
2018-Jun-13 13:29N 52°24' E 004°52'0 0.0
2018-Jun-13 12:59N 52°24' E 004°52'0 0.0
2018-Jun-13 12:29N 52°24' E 004°52'0 0.0
2018-Jun-13 11:59N 52°24' E 004°52'0 0.0
2018-Jun-13 11:29N 52°24' E 004°52'0 0.0
2018-Jun-13 10:59N 52°24' E 004°52'0 0.0
2018-Jun-13 10:29N 52°24' E 004°52'0 0.0
2018-Jun-13 09:59N 52°24' E 004°52'0 0.0
2018-Jun-13 09:29N 52°24' E 004°52'0 0.0
2018-Jun-13 08:59N 52°24' E 004°52'0 0.0
2018-Jun-13 08:29N 52°24' E 004°52'0 0.0
2018-Jun-13 07:59N 52°24' E 004°52'0 0.0
2018-Jun-13 07:29N 52°24' E 004°52'0 0.0
2018-Jun-13 06:59N 52°24' E 004°52'0 0.0
2018-Jun-13 06:29N 52°24' E 004°52'0 0.0
2018-Jun-13 05:59N 52°24' E 004°52'0 0.0
2018-Jun-13 05:29N 52°24' E 004°52'0 0.0
2018-Jun-13 04:59N 52°24' E 004°52'0 0.0
2018-Jun-13 04:29N 52°24' E 004°52'0 0.0
2018-Jun-13 03:59N 52°24' E 004°52'0 0.0
2018-Jun-13 03:29N 52°24' E 004°52'0 0.0
2018-Jun-13 02:59N 52°24' E 004°52'0 0.0
2018-Jun-13 02:29N 52°24' E 004°52'0 0.0
2018-Jun-13 01:59N 52°24' E 004°52'0 0.0
2018-Jun-13 01:29N 52°24' E 004°52'0 0.0
2018-Jun-13 00:59N 52°24' E 004°52'0 0.0
2018-Jun-13 00:29N 52°24' E 004°52'0 0.0
2018-Jun-12 23:59N 52°24' E 004°52'0 0.0
2018-Jun-12 23:29N 52°24' E 004°52'0 0.0
2018-Jun-12 22:59N 52°24' E 004°52'0 0.0
2018-Jun-12 22:29N 52°24' E 004°52'0 0.0
2018-Jun-12 21:59N 52°24' E 004°52'0 0.0
2018-Jun-12 21:29N 52°24' E 004°52'0 0.0
2018-Jun-12 20:59N 52°24' E 004°52'0 0.0
2018-Jun-12 20:29N 52°24' E 004°52'0 0.0
2018-Jun-12 19:59N 52°24' E 004°52'0 0.0
2018-Jun-12 19:29N 52°24' E 004°52'0 0.0
2018-Jun-12 18:59N 52°24' E 004°52'0 0.0
2018-Jun-12 18:29N 52°24' E 004°52'0 0.0
2018-Jun-12 17:59N 52°24' E 004°52'0 0.0
2018-Jun-12 17:29N 52°24' E 004°52'0 0.0
2018-Jun-12 16:59N 52°24' E 004°52'  

Dump ship's entire track history